createdAt,value
2023-04-01T00:01:05.460Z,86.09
2023-04-01T00:03:34.371Z,87.49
2023-04-01T00:06:01.774Z,86.76
2023-04-01T00:08:28.696Z,87.27
2023-04-01T00:10:55.538Z,88.60
2023-04-01T00:13:22.314Z,88.92
2023-04-01T00:15:49.159Z,87.83
2023-04-01T00:18:15.943Z,85.89
2023-04-01T00:20:48.252Z,86.45
2023-04-01T00:23:15.510Z,87.15
2023-04-01T00:25:42.195Z,87.93
2023-04-01T00:28:08.881Z,87.91
2023-04-01T00:30:37.536Z,90.29
2023-04-01T00:33:04.490Z,88.33
2023-04-01T00:35:31.205Z,90.39
2023-04-01T00:37:58.305Z,89.27
2023-04-01T00:40:32.914Z,90.06
2023-04-01T00:42:59.431Z,93.16
2023-04-01T00:45:31.120Z,93.42
2023-04-01T00:48:01.133Z,93.48
2023-04-01T00:50:28.432Z,92.37
2023-04-01T00:52:54.946Z,91.47
2023-04-01T00:55:22.790Z,93.54
2023-04-01T00:57:50.734Z,94.11
2023-04-01T01:00:18.321Z,94.45
2023-04-01T01:02:47.386Z,94.82
2023-04-01T01:05:15.879Z,93.76
2023-04-01T01:08:16.119Z,92.53
2023-04-01T01:10:43.525Z,92.71
2023-04-01T01:13:27.009Z,91.44
2023-04-01T01:16:07.974Z,94.24
2023-04-01T01:18:50.574Z,92.24
2023-04-01T01:21:54.703Z,93.67
2023-04-01T01:24:32.639Z,92.83
2023-04-01T01:27:12.709Z,93.32
2023-04-01T01:30:04.019Z,93.13
2023-04-01T01:32:39.518Z,93.11
2023-04-01T01:35:50.892Z,91.69
2023-04-01T01:38:20.841Z,91.03
2023-04-01T01:40:52.785Z,92.53
2023-04-01T01:43:22.719Z,91.04
2023-04-01T01:45:52.866Z,91.35
2023-04-01T01:48:20.873Z,90.53
2023-04-01T01:50:48.718Z,91.57
2023-04-01T01:53:15.317Z,91.87
2023-04-01T01:55:44.692Z,91.91
2023-04-01T01:58:11.214Z,90.67
2023-04-01T02:00:38.083Z,93.64
2023-04-01T02:03:05.593Z,94.30
2023-04-01T02:05:32.876Z,95.27
2023-04-01T02:08:07.682Z,92.95
2023-04-01T02:10:37.165Z,93.63
2023-04-01T02:13:09.032Z,92.63
2023-04-01T02:15:39.839Z,93.43
2023-04-01T02:18:06.987Z,92.30
2023-04-01T02:20:33.639Z,92.29
2023-04-01T02:23:00.736Z,93.42
2023-04-01T02:25:35.444Z,93.73
2023-04-01T02:28:05.276Z,93.34
2023-04-01T02:30:33.478Z,93.60
2023-04-01T02:33:00.319Z,92.09
2023-04-01T02:35:27.407Z,93.31
2023-04-01T02:37:55.378Z,93.74
2023-04-01T02:40:22.266Z,92.65
2023-04-01T02:42:48.821Z,91.64
2023-04-01T02:45:15.805Z,93.48
2023-04-01T02:47:42.546Z,93.24
2023-04-01T02:50:09.871Z,92.53
2023-04-01T02:52:36.558Z,93.37
2023-04-01T02:55:03.911Z,94.43
2023-04-01T02:57:30.698Z,91.37
2023-04-01T02:59:57.295Z,92.10
2023-04-01T03:02:23.786Z,92.41
2023-04-01T03:04:50.351Z,92.00
2023-04-01T03:07:17.181Z,93.03
2023-04-01T03:09:43.691Z,92.60
2023-04-01T03:12:10.244Z,91.94
2023-04-01T03:14:36.766Z,91.75
2023-04-01T03:17:03.259Z,93.28
2023-04-01T03:19:29.898Z,93.34
2023-04-01T03:21:56.344Z,94.31
2023-04-01T03:24:22.893Z,92.98
2023-04-01T03:26:49.510Z,93.03
2023-04-01T03:29:17.004Z,93.09
2023-04-01T03:31:43.731Z,94.30
2023-04-01T03:34:10.665Z,93.17
2023-04-01T03:36:37.583Z,93.05
2023-04-01T03:39:04.807Z,93.79
2023-04-01T03:41:31.799Z,93.10
2023-04-01T03:43:58.339Z,94.27
2023-04-01T03:46:25.159Z,94.70
2023-04-01T03:48:51.719Z,94.55
2023-04-01T03:51:18.250Z,95.01
2023-04-01T03:53:44.788Z,93.91
2023-04-01T03:56:11.404Z,95.42
2023-04-01T03:58:38.116Z,93.96
2023-04-01T04:01:05.378Z,93.89
2023-04-01T04:03:32.377Z,93.17
2023-04-01T04:05:58.946Z,94.08
2023-04-01T04:08:25.506Z,94.10
2023-04-01T04:10:58.236Z,93.51
2023-04-01T04:13:24.694Z,94.03
2023-04-01T04:15:51.192Z,92.46
2023-04-01T04:18:17.703Z,91.47
2023-04-01T04:20:46.862Z,92.24
2023-04-01T04:23:13.308Z,92.57
2023-04-01T04:25:39.774Z,92.79
2023-04-01T04:28:06.279Z,93.87
2023-04-01T04:30:32.777Z,91.15
2023-04-01T04:32:59.252Z,92.19
2023-04-01T04:35:25.760Z,93.38
2023-04-01T04:37:52.213Z,92.01
2023-04-01T04:40:18.676Z,91.69
2023-04-01T04:42:45.575Z,93.46
2023-04-01T04:45:13.678Z,92.09
2023-04-01T04:47:40.331Z,94.42
2023-04-01T04:50:07.706Z,94.94
2023-04-01T04:52:34.159Z,93.51
2023-04-01T04:55:00.846Z,92.99
2023-04-01T04:57:27.397Z,92.53
2023-04-01T04:59:53.974Z,92.55
2023-04-01T05:02:20.601Z,92.91
2023-04-01T05:04:47.092Z,91.63
2023-04-01T05:07:13.576Z,91.98
2023-04-01T05:09:40.085Z,91.37
2023-04-01T05:12:06.675Z,92.23
2023-04-01T05:14:33.110Z,92.79
2023-04-01T05:16:59.703Z,91.48
2023-04-01T05:19:26.254Z,91.38
2023-04-01T05:21:53.929Z,91.42
2023-04-01T05:24:20.389Z,91.22
2023-04-01T05:26:46.995Z,91.96
2023-04-01T05:29:13.509Z,91.52
2023-04-01T05:31:40.053Z,92.26
2023-04-01T05:34:06.537Z,93.74
2023-04-01T05:36:33.052Z,93.42
2023-04-01T05:38:59.496Z,92.71
2023-04-01T05:41:26.166Z,92.25
2023-04-01T05:43:52.591Z,92.71
2023-04-01T05:46:19.097Z,90.07
2023-04-01T05:48:45.613Z,93.05
2023-04-01T05:51:15.895Z,92.83
2023-04-01T05:53:43.054Z,92.79
2023-04-01T05:56:10.581Z,91.95
2023-04-01T05:58:37.864Z,91.68
2023-04-01T06:01:12.737Z,92.43
2023-04-01T06:03:42.479Z,93.76
2023-04-01T06:06:30.439Z,92.33
2023-04-01T06:08:59.168Z,91.03
2023-04-01T06:11:52.533Z,90.09
2023-04-01T06:14:32.083Z,91.86
2023-04-01T06:17:11.461Z,90.83
2023-04-01T06:20:06.364Z,90.89
2023-04-01T06:22:48.233Z,91.55
2023-04-01T06:25:44.002Z,90.66
2023-04-01T06:28:47.562Z,90.10
2023-04-01T06:31:26.419Z,91.51
2023-04-01T06:33:58.871Z,91.40
2023-04-01T06:36:48.547Z,90.85
2023-04-01T06:39:38.440Z,90.97
2023-04-01T06:42:15.325Z,91.20
2023-04-01T06:44:51.218Z,91.47
2023-04-01T06:47:52.590Z,91.14
2023-04-01T06:50:26.404Z,90.94
2023-04-01T06:53:23.283Z,89.74
2023-04-01T06:56:20.055Z,91.90
2023-04-01T06:58:52.712Z,91.94
2023-04-01T07:01:31.050Z,91.33
2023-04-01T07:04:04.895Z,92.01
2023-04-01T07:06:42.527Z,91.24
2023-04-01T07:09:17.206Z,92.91
2023-04-01T07:11:44.315Z,91.35
2023-04-01T07:14:33.625Z,90.16
2023-04-01T07:17:10.023Z,89.47
2023-04-01T07:19:48.886Z,91.59
2023-04-01T07:22:27.365Z,91.37
2023-04-01T07:24:54.977Z,91.37
2023-04-01T07:27:21.614Z,92.40
2023-04-01T07:29:48.433Z,91.60
2023-04-01T07:32:21.608Z,91.78
2023-04-01T07:35:25.677Z,90.85
2023-04-01T07:38:12.473Z,91.53
2023-04-01T07:40:38.916Z,92.19
2023-04-01T07:43:19.971Z,90.92
2023-04-01T07:45:56.676Z,92.21
2023-04-01T07:48:49.505Z,89.98
2023-04-01T07:51:18.896Z,90.91
2023-04-01T07:54:06.933Z,88.73
2023-04-01T07:56:42.531Z,89.13
2023-04-01T07:59:35.244Z,91.23
2023-04-01T08:02:06.430Z,89.44
2023-04-01T08:04:43.149Z,90.28
2023-04-01T08:07:26.222Z,91.29
2023-04-01T08:09:57.638Z,90.48
2023-04-01T08:12:46.955Z,90.37
2023-04-01T08:15:22.392Z,90.98
2023-04-01T08:18:06.090Z,89.89
2023-04-01T08:20:38.398Z,89.96
2023-04-01T08:23:12.762Z,90.41
2023-04-01T08:25:53.820Z,91.60
2023-04-01T08:28:40.620Z,90.12
2023-04-01T08:31:11.883Z,90.86
2023-04-01T08:33:39.086Z,89.12
2023-04-01T08:36:16.864Z,89.55
2023-04-01T08:39:05.842Z,90.56
2023-04-01T08:41:47.495Z,90.67
2023-04-01T08:44:28.548Z,91.22
2023-04-01T08:47:13.686Z,90.31
2023-04-01T08:49:43.270Z,90.03
2023-04-01T08:52:22.636Z,90.07
2023-04-01T08:55:14.549Z,91.41
2023-04-01T08:57:48.038Z,91.38
2023-04-01T09:00:47.980Z,90.26
2023-04-01T09:03:37.799Z,90.30
2023-04-01T09:06:32.202Z,90.78
2023-04-01T09:09:18.550Z,88.36
2023-04-01T09:12:04.592Z,88.29
2023-04-01T09:14:35.285Z,89.64
2023-04-01T09:17:15.758Z,88.55
2023-04-01T09:19:58.516Z,89.13
2023-04-01T09:22:34.816Z,88.80
2023-04-01T09:25:32.185Z,88.59
2023-04-01T09:28:09.884Z,88.01
2023-04-01T09:30:58.315Z,88.84
2023-04-01T09:33:52.883Z,88.28
2023-04-01T09:36:22.721Z,87.81
2023-04-01T09:38:55.294Z,87.28
2023-04-01T09:41:43.307Z,88.46
2023-04-01T09:44:21.338Z,90.32
2023-04-01T09:47:25.500Z,89.28
2023-04-01T09:50:07.137Z,90.06
2023-04-01T09:52:48.348Z,87.91
2023-04-01T09:55:51.868Z,88.92
2023-04-01T09:58:51.767Z,88.31
2023-04-01T10:01:37.281Z,88.42
2023-04-01T10:04:24.948Z,88.41
2023-04-01T10:06:52.353Z,86.91
2023-04-01T10:10:10.102Z,89.11
2023-04-01T10:13:01.361Z,88.24
2023-04-01T10:16:05.357Z,88.72
2023-04-01T10:19:16.920Z,88.33
2023-04-01T10:22:10.933Z,89.28
2023-04-01T10:25:00.335Z,88.98
2023-04-01T10:27:36.151Z,89.83
2023-04-01T10:30:56.854Z,88.95
2023-04-01T10:34:14.541Z,88.84
2023-04-01T10:36:54.908Z,86.55
2023-04-01T10:39:36.569Z,85.52
2023-04-01T10:42:21.939Z,87.28
2023-04-01T10:45:03.576Z,87.56
2023-04-01T10:47:57.994Z,88.73
2023-04-01T10:50:43.236Z,89.07
2023-04-01T10:53:24.028Z,90.58
2023-04-01T10:56:10.443Z,87.27
2023-04-01T10:58:52.266Z,88.10
2023-04-01T11:01:21.509Z,88.45
2023-04-01T11:04:15.737Z,90.13
2023-04-01T11:07:10.776Z,88.81
2023-04-01T11:10:15.669Z,87.63
2023-04-01T11:13:03.922Z,86.54
2023-04-01T11:15:54.138Z,90.00
2023-04-01T11:18:49.757Z,88.84
2023-04-01T11:21:41.386Z,87.78
2023-04-01T11:24:45.878Z,87.30
2023-04-01T11:27:46.474Z,87.62
2023-04-01T11:30:35.478Z,87.61
2023-04-01T11:33:06.193Z,87.96
2023-04-01T11:35:44.835Z,87.50
2023-04-01T11:38:33.109Z,86.76
2023-04-01T11:41:26.486Z,87.02
2023-04-01T11:44:19.234Z,86.63
2023-04-01T11:47:23.349Z,87.05
2023-04-01T11:50:15.477Z,87.54
2023-04-01T11:53:03.364Z,86.32
2023-04-01T11:55:50.474Z,85.97
2023-04-01T11:58:48.872Z,86.81
2023-04-01T12:01:27.944Z,85.91
2023-04-01T12:04:15.910Z,88.01
2023-04-01T12:07:07.430Z,87.36
2023-04-01T12:09:57.686Z,87.66
2023-04-01T12:12:54.106Z,87.76
2023-04-01T12:15:42.001Z,86.87
2023-04-01T12:18:18.379Z,85.59
2023-04-01T12:20:57.667Z,86.47
2023-04-01T12:24:03.371Z,84.90
2023-04-01T12:27:07.404Z,86.43
2023-04-01T12:29:51.522Z,86.95
2023-04-01T12:32:48.285Z,85.93
2023-04-01T12:35:25.829Z,86.39
2023-04-01T12:37:59.158Z,85.40
2023-04-01T12:40:33.013Z,86.05
2023-04-01T12:43:16.586Z,85.17
2023-04-01T12:45:51.975Z,85.75
2023-04-01T12:48:21.466Z,86.56
2023-04-01T12:50:54.163Z,86.15
2023-04-01T12:53:27.406Z,86.32
2023-04-01T12:55:53.983Z,85.54
2023-04-01T12:59:01.028Z,83.92
2023-04-01T13:01:53.036Z,85.03
2023-04-01T13:04:56.854Z,84.57
2023-04-01T13:07:32.546Z,84.28
2023-04-01T13:10:37.232Z,84.14
2023-04-01T13:13:04.421Z,84.91
2023-04-01T13:15:33.829Z,83.80
2023-04-01T13:18:14.277Z,84.89
2023-04-01T13:20:45.813Z,84.19
2023-04-01T13:23:34.272Z,84.46
2023-04-01T13:26:20.119Z,84.61
2023-04-01T13:29:27.173Z,84.03
2023-04-01T13:32:43.272Z,82.20
2023-04-01T13:35:19.625Z,83.53
2023-04-01T13:37:53.930Z,83.68
2023-04-01T13:40:29.922Z,83.71
2023-04-01T13:43:01.326Z,82.16
2023-04-01T13:45:44.309Z,82.54
2023-04-01T13:48:29.616Z,83.03
2023-04-01T13:51:23.911Z,82.97
2023-04-01T13:54:05.474Z,81.71
2023-04-01T13:56:34.922Z,81.88
2023-04-01T13:59:07.857Z,82.19
2023-04-01T14:01:51.221Z,82.04
2023-04-01T14:04:49.281Z,82.34
2023-04-01T14:07:43.980Z,81.74
2023-04-01T14:10:36.651Z,80.93
2023-04-01T14:13:15.483Z,80.63
2023-04-01T14:15:57.991Z,79.71
2023-04-01T14:18:42.681Z,80.13
2023-04-01T14:21:21.180Z,80.79
2023-04-01T14:23:56.230Z,81.11
2023-04-01T14:26:43.095Z,79.85
2023-04-01T14:29:18.596Z,80.62
2023-04-01T14:32:07.889Z,80.73
2023-04-01T14:34:53.149Z,80.01
2023-04-01T14:37:50.085Z,79.90
2023-04-01T14:40:19.849Z,80.31
2023-04-01T14:43:14.242Z,79.67
2023-04-01T14:45:56.295Z,80.83
2023-04-01T14:48:35.312Z,80.28
2023-04-01T14:51:30.772Z,80.45
2023-04-01T14:54:17.948Z,79.24
2023-04-01T14:56:48.637Z,80.72
2023-04-01T14:59:21.525Z,79.24
2023-04-01T15:01:59.862Z,78.69
2023-04-01T15:04:42.448Z,80.36
2023-04-01T15:07:46.807Z,80.56
2023-04-01T15:10:41.130Z,80.08
2023-04-01T15:13:15.291Z,79.81
2023-04-01T15:16:09.727Z,79.66
2023-04-01T15:19:01.005Z,78.57
2023-04-01T15:21:39.010Z,78.66
2023-04-01T15:24:09.052Z,79.39
2023-04-01T15:27:00.392Z,79.65
2023-04-01T15:29:42.229Z,77.95
2023-04-01T15:32:21.080Z,78.57
2023-04-01T15:34:59.431Z,79.71
2023-04-01T15:37:41.201Z,78.21
2023-04-01T15:40:19.012Z,78.04
2023-04-01T15:43:07.478Z,78.54
2023-04-01T15:45:47.109Z,77.69
2023-04-01T15:48:46.176Z,77.93
2023-04-01T15:51:23.386Z,78.36
2023-04-01T15:54:26.748Z,77.89
2023-04-01T15:57:11.409Z,78.19
2023-04-01T15:59:43.882Z,77.74
2023-04-01T16:03:01.691Z,78.90
2023-04-01T16:05:53.904Z,77.65
2023-04-01T16:08:41.739Z,77.92
2023-04-01T16:11:37.593Z,77.75
2023-04-01T16:14:48.048Z,78.10
2023-04-01T16:17:35.969Z,77.81
2023-04-01T16:20:43.302Z,77.29
2023-04-01T16:23:34.638Z,77.81
2023-04-01T16:26:19.311Z,78.25
2023-04-01T16:29:05.511Z,77.36
2023-04-01T16:31:51.912Z,78.04
2023-04-01T16:34:22.505Z,78.95
2023-04-01T16:36:53.963Z,77.90
2023-04-01T16:40:08.606Z,76.95
2023-04-01T16:42:54.393Z,76.01
2023-04-01T16:45:30.101Z,77.65
2023-04-01T16:48:01.337Z,77.04
2023-04-01T16:50:50.140Z,75.95
2023-04-01T16:53:22.830Z,75.38
2023-04-01T16:56:01.629Z,76.58
2023-04-01T16:58:36.220Z,75.89
2023-04-01T17:01:13.842Z,75.93
2023-04-01T17:03:53.470Z,75.63
2023-04-01T17:06:32.450Z,75.79
2023-04-01T17:09:46.750Z,74.35
2023-04-01T17:12:32.239Z,74.79
2023-04-01T17:15:35.685Z,74.03
2023-04-01T17:18:14.533Z,73.43
2023-04-01T17:20:41.121Z,73.89
2023-04-01T17:23:37.169Z,72.60
2023-04-01T17:26:31.658Z,72.10
2023-04-01T17:29:16.203Z,72.22
2023-04-01T17:32:08.891Z,72.30
2023-04-01T17:34:47.720Z,72.51
2023-04-01T17:37:32.970Z,73.25
2023-04-01T17:40:02.393Z,72.38
2023-04-01T17:42:37.918Z,73.59
2023-04-01T17:45:12.180Z,72.14
2023-04-01T17:47:42.945Z,73.81
2023-04-01T17:50:29.331Z,73.42
2023-04-01T17:53:20.697Z,72.01
2023-04-01T17:56:09.478Z,72.63
2023-04-01T17:58:47.314Z,73.23
2023-04-01T18:01:25.550Z,72.90
2023-04-01T18:03:57.924Z,72.80
2023-04-01T18:06:24.690Z,72.14
2023-04-01T18:09:00.968Z,72.54
2023-04-01T18:11:42.488Z,73.04
2023-04-01T18:14:42.883Z,73.74
2023-04-01T18:17:43.904Z,73.67
2023-04-01T18:20:19.780Z,72.40
2023-04-01T18:22:58.542Z,72.74
2023-04-01T18:25:31.333Z,72.64
2023-04-01T18:28:07.179Z,73.14
2023-04-01T18:30:35.809Z,72.99
2023-04-01T18:33:19.577Z,72.87
2023-04-01T18:35:54.134Z,73.07
2023-04-01T18:38:35.520Z,72.95
2023-04-01T18:41:15.436Z,73.66
2023-04-01T18:43:57.321Z,72.81
2023-04-01T18:46:35.220Z,72.98
2023-04-01T18:49:09.421Z,72.77
2023-04-01T18:51:35.963Z,71.83
2023-04-01T18:54:15.902Z,72.73
2023-04-01T18:56:44.616Z,74.03
2023-04-01T18:59:20.529Z,73.59
2023-04-01T19:02:00.419Z,73.09
2023-04-01T19:04:58.334Z,74.20
2023-04-01T19:07:41.647Z,72.92
2023-04-01T19:10:33.350Z,74.79
2023-04-01T19:13:22.160Z,74.26
2023-04-01T19:15:48.698Z,74.82
2023-04-01T19:18:42.761Z,74.42
2023-04-01T19:21:15.401Z,74.95
2023-04-01T19:24:19.729Z,74.63
2023-04-01T19:27:00.383Z,74.56
2023-04-01T19:29:26.914Z,75.72
2023-04-01T19:31:59.468Z,75.50
2023-04-01T19:34:35.327Z,74.46
2023-04-01T19:37:23.571Z,76.64
2023-04-01T19:40:01.275Z,76.06
2023-04-01T19:42:43.125Z,75.46
2023-04-01T19:45:54.245Z,76.31
2023-04-01T19:48:39.613Z,75.60
2023-04-01T19:51:14.676Z,75.84
2023-04-01T19:53:59.539Z,75.95
2023-04-01T19:56:34.721Z,75.97
2023-04-01T19:59:20.025Z,75.80
2023-04-01T20:01:51.381Z,75.32
2023-04-01T20:04:26.042Z,75.80
2023-04-01T20:07:02.315Z,73.50
2023-04-01T20:09:47.456Z,75.36
2023-04-01T20:12:29.040Z,74.90
2023-04-01T20:14:58.366Z,75.08
2023-04-01T20:17:45.671Z,74.84
2023-04-01T20:20:12.123Z,75.21
2023-04-01T20:22:44.642Z,75.14
2023-04-01T20:25:22.167Z,74.91
2023-04-01T20:27:53.113Z,75.46
2023-04-01T20:30:35.923Z,73.73
2023-04-01T20:33:26.327Z,74.44
2023-04-01T20:36:21.517Z,75.31
2023-04-01T20:39:03.238Z,75.31
2023-04-01T20:42:00.718Z,75.65
2023-04-01T20:44:46.597Z,75.74
2023-04-01T20:47:50.773Z,75.68
2023-04-01T20:50:31.795Z,75.56
2023-04-01T20:53:06.484Z,75.66
2023-04-01T20:55:48.604Z,75.17
2023-04-01T20:58:50.485Z,75.89
2023-04-01T21:01:43.512Z,74.91
2023-04-01T21:04:42.301Z,75.88
2023-04-01T21:07:33.550Z,75.33
2023-04-01T21:10:09.082Z,74.35
2023-04-01T21:12:55.260Z,74.67
2023-04-01T21:15:34.766Z,74.50
2023-04-01T21:18:18.141Z,75.21
2023-04-01T21:20:48.375Z,75.47
2023-04-01T21:23:21.253Z,74.66
2023-04-01T21:25:51.730Z,74.39
2023-04-01T21:28:34.539Z,74.93
2023-04-01T21:31:12.420Z,74.41
2023-04-01T21:33:50.386Z,72.54
2023-04-01T21:36:26.357Z,73.26
2023-04-01T21:39:12.290Z,73.25
2023-04-01T21:41:54.337Z,73.45
2023-04-01T21:44:42.232Z,72.71
2023-04-01T21:47:26.538Z,72.75
2023-04-01T21:50:20.657Z,72.94
2023-04-01T21:52:57.837Z,72.11
2023-04-01T21:55:24.260Z,72.83
2023-04-01T21:58:03.001Z,71.14
2023-04-01T22:01:21.882Z,72.35
2023-04-01T22:03:48.428Z,70.57
2023-04-01T22:06:28.072Z,71.95
2023-04-01T22:09:12.156Z,71.09
2023-04-01T22:11:46.096Z,71.17
2023-04-01T22:15:02.421Z,70.73
2023-04-01T22:17:34.307Z,70.70
2023-04-01T22:20:15.633Z,70.26
2023-04-01T22:22:57.865Z,70.16
2023-04-01T22:25:39.655Z,70.36
2023-04-01T22:28:10.232Z,70.16
2023-04-01T22:30:49.878Z,70.05
2023-04-01T22:33:40.868Z,70.18
2023-04-01T22:36:34.723Z,69.92
2023-04-01T22:39:23.721Z,70.73
2023-04-01T22:42:16.808Z,69.69
2023-04-01T22:45:01.930Z,70.04
2023-04-01T22:47:31.282Z,70.05
2023-04-01T22:50:03.342Z,69.47
2023-04-01T22:52:35.635Z,70.05
2023-04-01T22:55:25.830Z,69.97
2023-04-01T22:58:02.758Z,71.03
2023-04-01T23:00:55.736Z,70.60
2023-04-01T23:03:31.789Z,69.87
2023-04-01T23:06:00.560Z,69.33
2023-04-01T23:08:42.692Z,71.77
2023-04-01T23:11:13.699Z,70.95
2023-04-01T23:13:46.563Z,70.15
2023-04-01T23:16:13.757Z,70.24
2023-04-01T23:18:53.315Z,70.97
2023-04-01T23:21:24.504Z,70.83
2023-04-01T23:24:03.577Z,70.53
2023-04-01T23:27:04.278Z,70.57
2023-04-01T23:29:31.136Z,70.44
2023-04-01T23:32:01.902Z,70.55
2023-04-01T23:34:33.796Z,70.52
2023-04-01T23:37:05.802Z,70.36
2023-04-01T23:39:39.387Z,70.26
2023-04-01T23:42:13.903Z,70.86
2023-04-01T23:44:41.039Z,70.84
2023-04-01T23:47:10.149Z,70.53
2023-04-01T23:49:48.932Z,69.29
2023-04-01T23:52:25.364Z,69.96
2023-04-01T23:55:20.870Z,71.17
2023-04-01T23:58:23.180Z,68.98
